createdAt,value
2023-05-02T00:02:13.610Z,7.30
2023-05-02T00:04:42.138Z,7.20
2023-05-02T00:07:10.288Z,7.20
2023-05-02T00:09:39.290Z,7.20
2023-05-02T00:12:07.659Z,7.20
2023-05-02T00:14:35.863Z,7.10
2023-05-02T00:17:04.124Z,7.10
2023-05-02T00:19:33.774Z,7.10
2023-05-02T00:22:02.308Z,7.00
2023-05-02T00:24:30.815Z,7.00
2023-05-02T00:26:58.914Z,7.00
2023-05-02T00:29:27.425Z,6.90
2023-05-02T00:31:56.858Z,6.90
2023-05-02T00:34:24.963Z,6.80
2023-05-02T00:36:54.923Z,6.80
2023-05-02T00:39:23.621Z,6.70
2023-05-02T00:41:58.048Z,6.70
2023-05-02T00:44:26.911Z,6.70
2023-05-02T00:46:55.892Z,6.70
2023-05-02T00:49:25.299Z,6.60
2023-05-02T00:51:55.588Z,6.50
2023-05-02T00:54:23.951Z,6.40
2023-05-02T00:56:52.774Z,6.40
2023-05-02T00:59:21.441Z,6.30
2023-05-02T01:02:02.245Z,6.20
2023-05-02T01:04:41.370Z,6.20
2023-05-02T01:07:27.041Z,6.20
2023-05-02T01:10:07.327Z,6.10
2023-05-02T01:12:43.132Z,6.00
2023-05-02T01:15:17.681Z,5.90
2023-05-02T01:17:48.718Z,5.90
2023-05-02T01:20:21.686Z,5.80
2023-05-02T01:22:53.648Z,5.80
2023-05-02T01:25:31.060Z,5.80
2023-05-02T01:28:07.116Z,5.80
2023-05-02T01:30:39.640Z,5.70
2023-05-02T01:33:10.913Z,5.70
2023-05-02T01:35:40.062Z,5.70
2023-05-02T01:38:09.103Z,5.70
2023-05-02T01:40:39.423Z,5.70
2023-05-02T01:43:08.909Z,5.60
2023-05-02T01:45:40.459Z,5.60
2023-05-02T01:48:10.472Z,5.60
2023-05-02T01:50:40.525Z,5.60
2023-05-02T01:53:13.813Z,5.50
2023-05-02T01:55:44.766Z,5.50
2023-05-02T01:58:15.345Z,5.50
2023-05-02T02:00:46.597Z,5.40
2023-05-02T02:03:16.939Z,5.40
2023-05-02T02:05:46.773Z,5.30
2023-05-02T02:08:14.991Z,5.30
2023-05-02T02:10:47.550Z,5.20
2023-05-02T02:13:20.112Z,5.20
2023-05-02T02:15:52.544Z,5.10
2023-05-02T02:18:25.293Z,5.10
2023-05-02T02:20:55.673Z,5.00
2023-05-02T02:23:27.135Z,5.00
2023-05-02T02:25:57.282Z,4.90
2023-05-02T02:28:25.667Z,4.90
2023-05-02T02:30:55.403Z,4.80
2023-05-02T02:33:25.862Z,4.80
2023-05-02T02:36:01.206Z,4.80
2023-05-02T02:38:40.370Z,4.70
2023-05-02T02:41:16.132Z,4.70
2023-05-02T02:43:54.805Z,4.70
2023-05-02T02:46:36.303Z,4.70
2023-05-02T02:49:29.148Z,4.70
2023-05-02T02:52:05.071Z,4.70
2023-05-02T02:54:40.232Z,4.70
2023-05-02T02:57:17.664Z,4.60
2023-05-02T02:59:55.466Z,4.50
2023-05-02T03:02:29.979Z,4.40
2023-05-02T03:05:00.189Z,4.40
2023-05-02T03:07:29.765Z,4.30
2023-05-02T03:09:58.360Z,4.30
2023-05-02T03:12:27.346Z,4.20
2023-05-02T03:15:06.241Z,4.30
2023-05-02T03:17:35.886Z,4.30
2023-05-02T03:20:04.843Z,4.20
2023-05-02T03:22:33.052Z,4.20
2023-05-02T03:25:01.615Z,4.20
2023-05-02T03:27:30.052Z,4.10
2023-05-02T03:29:58.911Z,4.10
2023-05-02T03:32:28.141Z,4.00
2023-05-02T03:34:58.829Z,4.10
2023-05-02T03:37:27.138Z,4.00
2023-05-02T03:39:55.852Z,4.00
2023-05-02T03:42:24.023Z,4.10
2023-05-02T03:44:54.094Z,4.00
2023-05-02T03:47:22.410Z,4.00
2023-05-02T03:49:52.710Z,4.00
2023-05-02T03:52:22.267Z,4.00
2023-05-02T03:54:52.408Z,4.00
2023-05-02T03:57:21.344Z,4.10
2023-05-02T03:59:49.543Z,4.10
2023-05-02T04:02:18.082Z,4.10
2023-05-02T04:04:47.658Z,4.00
2023-05-02T04:07:19.811Z,4.00
2023-05-02T04:09:49.588Z,4.00
2023-05-02T04:12:17.825Z,3.90
2023-05-02T04:14:46.550Z,3.90
2023-05-02T04:17:15.708Z,4.00
2023-05-02T04:19:44.285Z,4.00
2023-05-02T04:22:13.031Z,4.00
2023-05-02T04:24:41.621Z,4.00
2023-05-02T04:27:13.731Z,4.00
2023-05-02T04:29:43.606Z,4.00
2023-05-02T04:32:12.855Z,3.90
2023-05-02T04:34:41.034Z,3.90
2023-05-02T04:37:10.060Z,4.00
2023-05-02T04:39:38.236Z,3.90
2023-05-02T04:42:06.413Z,3.90
2023-05-02T04:44:36.334Z,3.90
2023-05-02T04:47:04.973Z,4.00
2023-05-02T04:49:33.234Z,4.00
2023-05-02T04:52:01.836Z,4.00
2023-05-02T04:54:30.368Z,4.00
2023-05-02T04:56:59.496Z,4.00
2023-05-02T04:59:27.874Z,4.00
2023-05-02T05:01:57.965Z,4.00
2023-05-02T05:04:26.342Z,4.00
2023-05-02T05:06:55.055Z,4.00
2023-05-02T05:09:23.549Z,4.00
2023-05-02T05:11:51.690Z,4.10
2023-05-02T05:14:20.372Z,4.10
2023-05-02T05:16:49.010Z,4.10
2023-05-02T05:19:18.682Z,4.10
2023-05-02T05:21:47.207Z,4.10
2023-05-02T05:24:15.906Z,4.20
2023-05-02T05:26:44.089Z,4.20
2023-05-02T05:29:12.526Z,4.20
2023-05-02T05:31:41.910Z,4.20
2023-05-02T05:34:10.289Z,4.20
2023-05-02T05:36:41.946Z,4.20
2023-05-02T05:39:10.424Z,4.10
2023-05-02T05:41:38.765Z,4.20
2023-05-02T05:44:06.971Z,4.20
2023-05-02T05:46:35.624Z,4.20
2023-05-02T05:49:04.004Z,4.10
2023-05-02T05:51:32.836Z,4.20
2023-05-02T05:54:03.062Z,4.20
2023-05-02T05:56:31.241Z,4.20
2023-05-02T05:58:59.486Z,4.20
2023-05-02T06:01:27.829Z,4.20
2023-05-02T06:03:56.204Z,4.30
2023-05-02T06:06:24.747Z,4.30
2023-05-02T06:08:53.074Z,4.30
2023-05-02T06:11:24.471Z,4.30
2023-05-02T06:13:53.586Z,4.40
2023-05-02T06:16:21.919Z,4.40
2023-05-02T06:18:52.778Z,4.40
2023-05-02T06:21:21.412Z,4.40
2023-05-02T06:23:49.547Z,4.40
2023-05-02T06:26:17.838Z,4.50
2023-05-02T06:28:47.555Z,4.50
2023-05-02T06:31:16.491Z,4.50
2023-05-02T06:33:44.776Z,4.50
2023-05-02T06:36:13.091Z,4.50
2023-05-02T06:38:41.784Z,4.50
2023-05-02T06:41:17.852Z,4.60
2023-05-02T06:43:47.747Z,4.60
2023-05-02T06:46:16.350Z,4.60
2023-05-02T06:48:44.575Z,4.60
2023-05-02T06:51:12.850Z,4.60
2023-05-02T06:53:41.689Z,4.70
2023-05-02T06:56:09.990Z,4.70
2023-05-02T06:58:38.201Z,4.60
2023-05-02T07:01:08.087Z,4.70
2023-05-02T07:03:36.519Z,4.60
2023-05-02T07:06:04.813Z,4.60
2023-05-02T07:08:33.185Z,4.60
2023-05-02T07:11:01.367Z,4.70
2023-05-02T07:13:29.539Z,4.70
2023-05-02T07:15:57.919Z,4.70
2023-05-02T07:18:27.629Z,4.70
2023-05-02T07:20:56.332Z,4.80
2023-05-02T07:23:25.381Z,4.80
2023-05-02T07:25:53.687Z,4.90
2023-05-02T07:28:22.322Z,5.00
2023-05-02T07:30:51.226Z,5.00
2023-05-02T07:33:19.509Z,5.10
2023-05-02T07:35:49.273Z,5.20
2023-05-02T07:38:17.903Z,5.30
2023-05-02T07:40:47.061Z,5.30
2023-05-02T07:43:16.130Z,5.20
2023-05-02T07:45:44.848Z,5.20
2023-05-02T07:48:13.006Z,5.20
2023-05-02T07:50:41.786Z,5.20
2023-05-02T07:53:11.819Z,5.20
2023-05-02T07:55:39.995Z,5.20
2023-05-02T07:58:08.282Z,5.30
2023-05-02T08:00:36.572Z,5.20
2023-05-02T08:03:06.699Z,5.30
2023-05-02T08:05:35.059Z,5.50
2023-05-02T08:08:04.157Z,5.50
2023-05-02T08:10:33.685Z,5.60
2023-05-02T08:13:02.076Z,5.60
2023-05-02T08:15:30.866Z,5.70
2023-05-02T08:17:59.907Z,5.70
2023-05-02T08:20:28.635Z,5.80
2023-05-02T08:22:59.888Z,5.80
2023-05-02T08:25:28.467Z,5.90
2023-05-02T08:27:58.002Z,5.90
2023-05-02T08:30:26.237Z,5.90
2023-05-02T08:32:54.449Z,5.90
2023-05-02T08:35:22.766Z,6.00
2023-05-02T08:37:51.163Z,6.20
2023-05-02T08:40:30.443Z,6.40
2023-05-02T08:43:08.125Z,6.30
2023-05-02T08:45:40.442Z,6.20
2023-05-02T08:48:11.133Z,6.00
2023-05-02T08:50:41.687Z,6.00
2023-05-02T08:53:11.628Z,6.20
2023-05-02T08:55:41.133Z,6.70
2023-05-02T08:58:12.398Z,6.70
2023-05-02T09:00:44.001Z,7.10
2023-05-02T09:03:22.042Z,7.50
2023-05-02T09:05:55.672Z,8.00
2023-05-02T09:08:25.124Z,7.40
2023-05-02T09:10:53.483Z,7.20
2023-05-02T09:13:42.164Z,7.60
2023-05-02T09:16:12.561Z,8.60
2023-05-02T09:18:42.342Z,9.10
2023-05-02T09:21:12.972Z,9.20
2023-05-02T09:23:43.106Z,9.70
2023-05-02T09:26:16.512Z,9.90
2023-05-02T09:28:47.683Z,9.40
2023-05-02T09:31:26.911Z,9.00
2023-05-02T09:34:11.136Z,8.70
2023-05-02T09:36:41.894Z,8.60
2023-05-02T09:39:13.645Z,8.80
2023-05-02T09:41:42.881Z,8.70
2023-05-02T09:44:13.959Z,8.50
2023-05-02T09:46:43.170Z,9.00
2023-05-02T09:49:11.928Z,9.70
2023-05-02T09:51:40.604Z,10.10
2023-05-02T09:54:08.855Z,9.80
2023-05-02T09:56:54.424Z,9.90
2023-05-02T09:59:24.922Z,9.50
2023-05-02T10:02:00.115Z,9.40
2023-05-02T10:04:29.950Z,9.80
2023-05-02T10:06:58.917Z,10.20
2023-05-02T10:09:28.357Z,10.40
2023-05-02T10:11:57.944Z,11.00
2023-05-02T10:14:29.560Z,11.30
2023-05-02T10:17:03.184Z,11.60
2023-05-02T10:19:42.943Z,11.30
2023-05-02T10:22:14.100Z,11.60
2023-05-02T10:24:43.466Z,11.20
2023-05-02T10:27:11.688Z,10.20
2023-05-02T10:29:44.053Z,9.00
2023-05-02T10:32:12.667Z,8.30
2023-05-02T10:34:42.861Z,7.90
2023-05-02T10:37:18.731Z,9.30
2023-05-02T10:39:47.109Z,10.70
2023-05-02T10:42:16.080Z,11.90
2023-05-02T10:44:45.965Z,11.50
2023-05-02T10:47:21.844Z,10.90
2023-05-02T10:49:54.997Z,11.00
2023-05-02T10:52:30.822Z,10.90
2023-05-02T10:55:20.023Z,12.20
2023-05-02T10:58:23.412Z,12.80
2023-05-02T11:00:53.276Z,14.10
2023-05-02T11:03:56.181Z,14.60
2023-05-02T11:06:24.926Z,15.30
2023-05-02T11:08:53.361Z,14.90
2023-05-02T11:11:41.395Z,13.00
2023-05-02T11:14:09.936Z,12.60
2023-05-02T11:17:13.301Z,13.20
2023-05-02T11:20:29.938Z,13.30
2023-05-02T11:23:22.956Z,13.30
2023-05-02T11:25:52.536Z,12.80
2023-05-02T11:28:44.736Z,13.10
2023-05-02T11:31:54.843Z,13.10
2023-05-02T11:34:25.054Z,13.00
2023-05-02T11:36:53.220Z,13.00
2023-05-02T11:39:22.981Z,13.90
2023-05-02T11:41:52.342Z,14.50
2023-05-02T11:44:20.614Z,13.60
2023-05-02T11:46:48.960Z,12.70
2023-05-02T11:49:17.797Z,12.40
2023-05-02T11:51:47.547Z,12.10
2023-05-02T11:54:21.533Z,12.10
2023-05-02T11:56:49.822Z,12.60
2023-05-02T11:59:18.042Z,13.10
2023-05-02T12:01:50.437Z,12.90
2023-05-02T12:04:22.091Z,13.00
2023-05-02T12:06:58.833Z,13.20
2023-05-02T12:09:27.083Z,13.60
2023-05-02T12:11:55.576Z,13.50
2023-05-02T12:14:30.917Z,13.30
2023-05-02T12:17:00.496Z,13.00
2023-05-02T12:19:29.143Z,12.90
2023-05-02T12:21:59.255Z,12.70
2023-05-02T12:24:27.474Z,12.10
2023-05-02T12:27:11.545Z,12.20
2023-05-02T12:29:41.149Z,12.80
2023-05-02T12:32:09.486Z,13.30
2023-05-02T12:34:39.053Z,13.40
2023-05-02T12:37:11.852Z,13.70
2023-05-02T12:39:41.822Z,13.80
2023-05-02T12:42:15.767Z,13.80
2023-05-02T12:44:45.746Z,13.20
2023-05-02T12:47:15.694Z,13.00
2023-05-02T12:49:50.764Z,12.70
2023-05-02T12:52:20.972Z,12.60
2023-05-02T12:54:49.522Z,12.70
2023-05-02T12:57:25.135Z,12.60
2023-05-02T12:59:54.350Z,12.80
2023-05-02T13:02:22.964Z,12.80
2023-05-02T13:04:51.706Z,13.20
2023-05-02T13:07:21.294Z,13.50
2023-05-02T13:09:49.581Z,13.60
2023-05-02T13:12:18.373Z,13.20
2023-05-02T13:14:46.607Z,12.90
2023-05-02T13:17:14.925Z,12.80
2023-05-02T13:19:50.557Z,12.70
2023-05-02T13:22:27.651Z,12.80
2023-05-02T13:24:56.777Z,12.80
2023-05-02T13:27:25.566Z,12.90
2023-05-02T13:29:53.986Z,12.70
2023-05-02T13:32:23.059Z,12.50
2023-05-02T13:34:51.276Z,12.50
2023-05-02T13:37:19.422Z,12.50
2023-05-02T13:39:49.347Z,12.40
2023-05-02T13:42:17.721Z,12.50
2023-05-02T13:44:46.155Z,12.40
2023-05-02T13:47:14.598Z,12.50
2023-05-02T13:49:42.807Z,12.60
2023-05-02T13:52:11.549Z,12.30
2023-05-02T13:54:40.206Z,12.00
2023-05-02T13:57:09.759Z,12.10
2023-05-02T13:59:37.957Z,12.00
2023-05-02T14:02:06.360Z,12.20
2023-05-02T14:04:34.709Z,12.40
2023-05-02T14:07:02.980Z,12.50
2023-05-02T14:09:31.504Z,12.70
2023-05-02T14:11:59.897Z,12.80
2023-05-02T14:14:29.821Z,13.00
2023-05-02T14:16:58.248Z,12.80
2023-05-02T14:19:26.534Z,12.80
2023-05-02T14:21:54.839Z,12.60
2023-05-02T14:24:23.353Z,12.10
2023-05-02T14:26:51.630Z,11.80
2023-05-02T14:29:20.892Z,11.90
2023-05-02T14:31:50.527Z,11.80
2023-05-02T14:34:18.803Z,11.50
2023-05-02T14:36:46.934Z,11.30
2023-05-02T14:39:15.374Z,11.10
2023-05-02T14:41:43.607Z,11.10
2023-05-02T14:44:12.192Z,11.10
2023-05-02T14:46:40.772Z,10.80
2023-05-02T14:49:10.331Z,10.70
2023-05-02T14:51:39.823Z,10.80
2023-05-02T14:54:08.303Z,10.60
2023-05-02T14:56:36.666Z,10.60
2023-05-02T14:59:05.057Z,10.80
2023-05-02T15:01:33.604Z,11.00
2023-05-02T15:06:35.098Z,11.00
2023-05-02T15:09:03.748Z,11.10
2023-05-02T15:11:31.926Z,11.50
2023-05-02T15:14:00.253Z,11.70
2023-05-02T15:16:28.446Z,11.70
2023-05-02T15:18:56.642Z,11.50
2023-05-02T15:21:25.216Z,11.20
2023-05-02T15:23:54.818Z,10.80
2023-05-02T15:26:24.338Z,10.60
2023-05-02T15:28:52.697Z,10.60
2023-05-02T15:31:21.204Z,10.70
2023-05-02T15:33:49.553Z,10.90
2023-05-02T15:36:18.240Z,11.10
2023-05-02T15:38:46.427Z,11.20
2023-05-02T15:41:16.045Z,11.50
2023-05-02T15:43:44.522Z,11.40
2023-05-02T15:46:12.742Z,11.20
2023-05-02T15:48:41.434Z,11.10
2023-05-02T15:51:11.038Z,10.90
2023-05-02T15:53:42.421Z,10.70
2023-05-02T15:56:10.980Z,10.60
2023-05-02T15:58:41.001Z,10.60
2023-05-02T16:01:09.235Z,10.60
2023-05-02T16:03:37.970Z,10.30
2023-05-02T16:06:07.782Z,10.20
2023-05-02T16:08:36.342Z,10.10
2023-05-02T16:11:04.716Z,9.90
2023-05-02T16:13:33.029Z,9.90
2023-05-02T16:16:02.600Z,9.90
2023-05-02T16:18:31.260Z,9.90
2023-05-02T16:20:59.880Z,9.90
2023-05-02T16:23:28.155Z,10.00
2023-05-02T16:25:59.621Z,10.00
2023-05-02T16:28:28.109Z,10.10
2023-05-02T16:30:56.556Z,10.40
2023-05-02T16:33:26.231Z,10.50
2023-05-02T16:36:02.911Z,10.50
2023-05-02T16:38:31.906Z,10.60
2023-05-02T16:41:00.013Z,10.60
2023-05-02T16:43:28.292Z,10.70
2023-05-02T16:46:03.391Z,10.80
2023-05-02T16:48:33.471Z,10.80
2023-05-02T16:51:03.976Z,10.90
2023-05-02T16:53:32.913Z,10.80
2023-05-02T16:56:01.285Z,10.70
2023-05-02T16:58:29.898Z,10.60
2023-05-02T17:01:00.186Z,10.40
2023-05-02T17:03:29.569Z,10.30
2023-05-02T17:06:02.328Z,10.20
2023-05-02T17:08:31.182Z,10.10
2023-05-02T17:10:59.289Z,10.00
2023-05-02T17:13:27.561Z,10.10
2023-05-02T17:15:56.030Z,10.20
2023-05-02T17:18:24.453Z,10.10
2023-05-02T17:20:52.908Z,10.00
2023-05-02T17:23:22.424Z,10.00
2023-05-02T17:25:50.977Z,9.90
2023-05-02T17:28:20.120Z,9.80
2023-05-02T17:30:48.509Z,9.70
2023-05-02T17:33:16.966Z,9.60
2023-05-02T17:35:45.086Z,9.50
2023-05-02T17:38:13.212Z,9.50
2023-05-02T17:40:42.975Z,9.40
2023-05-02T17:43:11.181Z,9.30
2023-05-02T17:45:41.965Z,9.30
2023-05-02T17:48:11.276Z,9.30
2023-05-02T17:50:40.093Z,9.30
2023-05-02T17:53:09.297Z,9.30
2023-05-02T17:55:38.675Z,9.20
2023-05-02T17:58:08.268Z,9.20
2023-05-02T18:00:36.453Z,9.10
2023-05-02T18:03:05.586Z,9.00
2023-05-02T18:05:39.406Z,8.90
2023-05-02T18:08:08.166Z,8.80
2023-05-02T18:10:39.628Z,8.70
2023-05-02T18:13:10.060Z,8.60
2023-05-02T18:15:38.153Z,8.50
2023-05-02T18:18:06.493Z,8.40
2023-05-02T18:20:39.619Z,8.30
2023-05-02T18:23:07.907Z,8.20
2023-05-02T18:25:36.527Z,8.20
2023-05-02T18:28:04.786Z,8.00
2023-05-02T18:30:37.626Z,8.00
2023-05-02T18:33:06.590Z,7.90
2023-05-02T18:35:35.570Z,7.80
2023-05-02T18:38:03.782Z,7.70
2023-05-02T18:40:32.820Z,7.60
2023-05-02T18:43:01.125Z,7.50
2023-05-02T18:45:29.431Z,7.40
2023-05-02T18:47:59.422Z,7.30
2023-05-02T18:50:28.259Z,7.20
2023-05-02T18:52:56.483Z,7.10
2023-05-02T18:55:25.461Z,7.10
2023-05-02T18:57:54.123Z,7.00
2023-05-02T19:00:23.465Z,6.90
2023-05-02T19:02:53.556Z,6.80
2023-05-02T19:05:23.178Z,6.70
2023-05-02T19:07:51.355Z,6.60
2023-05-02T19:10:19.538Z,6.60
2023-05-02T19:12:47.974Z,6.50
2023-05-02T19:15:16.215Z,6.50
2023-05-02T19:17:45.647Z,6.40
2023-05-02T19:20:14.076Z,6.40
2023-05-02T19:22:43.850Z,6.40
2023-05-02T19:25:13.262Z,6.30
2023-05-02T19:27:42.399Z,6.30
2023-05-02T19:30:13.557Z,6.20
2023-05-02T19:32:41.971Z,6.20
2023-05-02T19:35:10.656Z,6.20
2023-05-02T19:37:38.829Z,6.20
2023-05-02T19:40:11.040Z,6.20
2023-05-02T19:42:39.500Z,6.20
2023-05-02T19:45:09.911Z,6.20
2023-05-02T19:47:38.596Z,6.20
2023-05-02T19:50:07.872Z,6.20
2023-05-02T19:52:37.423Z,6.20
2023-05-02T19:55:07.084Z,6.20
2023-05-02T19:57:36.730Z,6.10
2023-05-02T20:00:06.280Z,6.10
2023-05-02T20:02:34.742Z,6.00
2023-05-02T20:05:03.181Z,6.00
2023-05-02T20:07:31.323Z,5.90
2023-05-02T20:09:59.760Z,5.80
2023-05-02T20:12:28.159Z,5.80
2023-05-02T20:14:57.662Z,5.70
2023-05-02T20:17:25.883Z,5.70
2023-05-02T20:19:54.287Z,5.60
2023-05-02T20:22:22.646Z,5.70
2023-05-02T20:24:51.207Z,5.60
2023-05-02T20:27:19.487Z,5.60
2023-05-02T20:29:47.642Z,5.50
2023-05-02T20:32:17.460Z,5.50
2023-05-02T20:34:45.971Z,5.50
2023-05-02T20:37:14.127Z,5.50
2023-05-02T20:39:42.268Z,5.50
2023-05-02T20:42:10.761Z,5.40
2023-05-02T20:44:39.145Z,5.40
2023-05-02T20:47:07.512Z,5.40
2023-05-02T20:49:37.548Z,5.40
2023-05-02T20:52:06.350Z,5.30
2023-05-02T20:54:34.578Z,5.30
2023-05-02T20:57:03.728Z,5.30
2023-05-02T20:59:32.054Z,5.30
2023-05-02T21:02:00.771Z,5.20
2023-05-02T21:04:29.058Z,5.30
2023-05-02T21:06:58.863Z,5.20
2023-05-02T21:09:27.509Z,5.20
2023-05-02T21:11:55.875Z,5.20
2023-05-02T21:14:25.842Z,5.20
2023-05-02T21:16:54.190Z,5.20
2023-05-02T21:19:22.994Z,5.20
2023-05-02T21:21:51.140Z,5.20
2023-05-02T21:24:21.110Z,5.20
2023-05-02T21:26:49.373Z,5.30
2023-05-02T21:29:18.624Z,5.30
2023-05-02T21:31:47.454Z,5.30
2023-05-02T21:34:16.062Z,5.40
2023-05-02T21:36:44.388Z,5.40
2023-05-02T21:39:12.815Z,5.60
2023-05-02T21:41:42.510Z,5.60
2023-05-02T21:44:14.400Z,5.80
2023-05-02T21:46:42.589Z,5.80
2023-05-02T21:49:10.774Z,6.00
2023-05-02T21:51:40.704Z,6.10
2023-05-02T21:54:09.309Z,6.10
2023-05-02T21:56:37.435Z,6.20
2023-05-02T21:59:07.306Z,6.20
2023-05-02T22:01:35.646Z,6.20
2023-05-02T22:04:03.920Z,6.20
2023-05-02T22:06:33.108Z,6.30
2023-05-02T22:09:01.465Z,6.30
2023-05-02T22:11:31.428Z,6.30
2023-05-02T22:13:59.727Z,6.20
2023-05-02T22:16:29.530Z,6.30
2023-05-02T22:18:58.099Z,6.30
2023-05-02T22:21:27.541Z,6.30
2023-05-02T22:23:56.188Z,6.20
2023-05-02T22:26:24.637Z,6.20
2023-05-02T22:28:53.048Z,6.30
2023-05-02T22:31:21.501Z,6.20
2023-05-02T22:33:51.196Z,6.20
2023-05-02T22:36:20.495Z,6.20
2023-05-02T22:38:48.746Z,6.10
2023-05-02T22:41:16.953Z,6.10
2023-05-02T22:43:45.228Z,6.10
2023-05-02T22:46:13.374Z,6.00
2023-05-02T22:48:41.509Z,6.00
2023-05-02T22:51:11.234Z,6.00
2023-05-02T22:53:40.072Z,5.90
2023-05-02T22:56:08.470Z,5.80
2023-05-02T22:58:36.688Z,5.70
2023-05-02T23:01:05.422Z,5.70
2023-05-02T23:03:34.029Z,5.60
2023-05-02T23:06:02.351Z,5.60
2023-05-02T23:08:31.891Z,5.60
2023-05-02T23:11:00.080Z,5.50
2023-05-02T23:13:28.407Z,5.40
2023-05-02T23:15:57.011Z,5.40
2023-05-02T23:18:25.344Z,5.30
2023-05-02T23:20:53.505Z,5.30
2023-05-02T23:23:22.070Z,5.20
2023-05-02T23:25:51.691Z,5.20
2023-05-02T23:28:19.981Z,5.20
2023-05-02T23:30:48.740Z,5.10
2023-05-02T23:33:17.477Z,5.00
2023-05-02T23:35:46.227Z,4.90
2023-05-02T23:38:15.046Z,4.80
2023-05-02T23:40:43.333Z,4.70
2023-05-02T23:43:14.140Z,4.60
2023-05-02T23:45:42.738Z,4.50
2023-05-02T23:48:10.886Z,4.30
2023-05-02T23:50:40.334Z,4.20
2023-05-02T23:53:08.867Z,4.10
2023-05-02T23:55:36.975Z,4.00
2023-05-02T23:58:05.158Z,4.00
